createdAt,value
2022-08-17T00:02:06.558Z,101070.28
2022-08-17T00:05:27.698Z,101066.16
2022-08-17T00:08:35.949Z,101064.94
2022-08-17T00:11:40.226Z,101062.00
2022-08-17T00:14:41.683Z,101059.22
2022-08-17T00:17:46.870Z,101059.16
2022-08-17T00:20:48.311Z,101056.50
2022-08-17T00:23:50.199Z,101064.69
2022-08-17T00:26:51.660Z,101068.47
2022-08-17T00:29:53.113Z,101061.22
2022-08-17T00:33:13.920Z,101051.22
2022-08-17T00:36:18.227Z,101045.31
2022-08-17T00:39:19.685Z,101046.31
2022-08-17T00:42:21.112Z,101044.91
2022-08-17T00:45:22.565Z,101041.34
2022-08-17T00:48:29.590Z,101040.88
2022-08-17T00:51:38.570Z,101031.13
2022-08-17T00:54:43.124Z,101023.41
2022-08-17T00:57:51.244Z,101018.50
2022-08-17T01:00:56.253Z,101015.41
2022-08-17T01:03:59.852Z,101017.13
2022-08-17T01:07:03.246Z,101019.81
2022-08-17T01:10:59.779Z,101018.81
2022-08-17T01:13:42.324Z,101022.19
2022-08-17T01:16:43.818Z,101025.41
2022-08-17T01:19:45.300Z,101030.91
2022-08-17T01:22:46.798Z,101031.63
2022-08-17T01:25:55.150Z,101035.38
2022-08-17T01:28:56.642Z,101034.50
2022-08-17T01:32:03.392Z,101039.13
2022-08-17T01:35:05.992Z,101048.31
2022-08-17T01:38:08.025Z,101054.94
2022-08-17T01:41:13.621Z,101062.34
2022-08-17T01:44:16.249Z,101052.66
2022-08-17T01:47:17.692Z,101046.91
2022-08-17T01:50:26.837Z,101057.25
2022-08-17T01:53:40.452Z,101054.75
2022-08-17T01:56:47.477Z,101048.44
2022-08-17T01:59:49.404Z,101042.59
2022-08-17T02:02:50.978Z,101044.22
2022-08-17T02:05:52.679Z,101048.81
2022-08-17T02:09:02.689Z,101063.91
2022-08-17T02:12:39.497Z,101066.03
2022-08-17T02:15:27.313Z,101085.63
2022-08-17T02:18:28.814Z,101094.13
2022-08-17T02:21:30.375Z,101106.91
2022-08-17T02:24:59.992Z,101090.69
2022-08-17T02:27:57.153Z,101113.63
2022-08-17T02:31:08.441Z,101137.50
2022-08-17T02:34:10.129Z,101139.25
2022-08-17T02:37:11.623Z,101150.63
2022-08-17T02:40:13.191Z,101172.16
2022-08-17T02:43:15.104Z,101183.00
2022-08-17T02:46:16.590Z,101165.66
2022-08-17T02:49:18.065Z,101153.09
2022-08-17T02:52:19.518Z,101157.28
2022-08-17T02:55:42.410Z,101149.34
2022-08-17T02:58:44.170Z,101149.94
2022-08-17T03:01:45.667Z,101134.34
2022-08-17T03:04:47.143Z,101129.25
2022-08-17T03:07:48.918Z,101133.09
2022-08-17T03:10:50.529Z,101115.28
2022-08-17T03:13:52.212Z,101112.69
2022-08-17T03:16:53.672Z,101113.88
2022-08-17T03:19:55.106Z,101096.25
2022-08-17T03:23:02.840Z,101096.56
2022-08-17T03:26:04.562Z,101097.50
2022-08-17T03:29:13.701Z,101092.44
2022-08-17T03:32:16.479Z,101091.53
2022-08-17T03:35:20.336Z,101088.09
2022-08-17T03:38:21.850Z,101084.47
2022-08-17T03:41:24.695Z,101087.94
2022-08-17T03:44:26.157Z,101095.84
2022-08-17T03:47:27.960Z,101100.50
2022-08-17T03:50:29.570Z,101087.94
2022-08-17T03:53:30.996Z,101086.03
2022-08-17T03:56:33.714Z,101090.59
2022-08-17T03:59:36.349Z,101109.44
2022-08-17T04:02:37.791Z,101106.19
2022-08-17T04:05:39.762Z,101113.25
2022-08-17T04:08:41.425Z,101116.88
2022-08-17T04:11:43.055Z,101111.34
2022-08-17T04:14:52.037Z,101101.44
2022-08-17T04:17:55.828Z,101106.63
2022-08-17T04:20:57.389Z,101103.00
2022-08-17T04:24:00.427Z,101089.81
2022-08-17T04:27:01.912Z,101074.47
2022-08-17T04:30:05.140Z,101072.94
2022-08-17T04:33:13.149Z,101068.63
2022-08-17T04:36:15.741Z,101056.94
2022-08-17T04:39:17.187Z,101054.53
2022-08-17T04:42:18.634Z,101052.06
2022-08-17T04:45:20.209Z,101051.38
2022-08-17T04:48:27.952Z,101057.78
2022-08-17T04:51:45.531Z,101062.84
2022-08-17T04:54:56.202Z,101061.75
2022-08-17T04:57:57.686Z,101060.72
2022-08-17T05:00:59.453Z,101050.91
2022-08-17T05:04:21.446Z,101054.31
2022-08-17T05:07:31.280Z,101040.97
2022-08-17T05:10:37.881Z,101048.81
2022-08-17T05:13:47.667Z,101056.78
2022-08-17T05:16:49.236Z,101055.56
2022-08-17T05:19:52.107Z,101051.22
2022-08-17T05:22:56.572Z,101048.81
2022-08-17T05:25:58.084Z,101054.94
2022-08-17T05:29:02.531Z,101054.16
2022-08-17T05:32:38.674Z,101053.38
2022-08-17T05:35:36.363Z,101060.44
2022-08-17T05:38:37.844Z,101052.44
2022-08-17T05:41:39.284Z,101059.59
2022-08-17T05:44:40.780Z,101057.88
2022-08-17T05:47:44.320Z,101056.25
2022-08-17T05:50:55.605Z,101058.97
2022-08-17T05:54:23.602Z,101059.50
2022-08-17T05:57:57.968Z,101056.06
2022-08-17T06:01:24.432Z,101061.41
2022-08-17T06:04:40.912Z,101070.34
2022-08-17T06:08:11.943Z,101072.06
2022-08-17T06:11:21.491Z,101079.13
2022-08-17T06:14:54.533Z,101085.72
2022-08-17T06:18:03.564Z,101089.78
2022-08-17T06:21:10.997Z,101095.81
2022-08-17T06:24:28.477Z,101098.50
2022-08-17T06:27:44.995Z,101107.97
2022-08-17T06:31:00.213Z,101099.97
2022-08-17T06:34:06.462Z,101113.41
2022-08-17T06:37:21.584Z,101111.16
2022-08-17T06:40:49.462Z,101107.28
2022-08-17T06:43:58.900Z,101118.47
2022-08-17T06:47:10.818Z,101128.75
2022-08-17T06:50:15.226Z,101136.41
2022-08-17T06:53:40.630Z,101136.75
2022-08-17T06:56:53.996Z,101146.22
2022-08-17T07:00:05.430Z,101148.31
2022-08-17T07:03:26.237Z,101137.78
2022-08-17T07:06:34.079Z,101136.91
2022-08-17T07:09:43.047Z,101129.78
2022-08-17T07:12:51.032Z,101128.44
2022-08-17T07:15:59.417Z,101123.47
2022-08-17T07:19:00.963Z,101126.56
2022-08-17T07:22:07.212Z,101125.28
2022-08-17T07:25:13.028Z,101142.84
2022-08-17T07:28:22.222Z,101142.81
2022-08-17T07:31:28.390Z,101143.38
2022-08-17T07:34:29.890Z,101151.59
2022-08-17T07:37:31.339Z,101159.53
2022-08-17T07:40:36.849Z,101164.50
2022-08-17T07:43:41.442Z,101162.78
2022-08-17T07:46:51.846Z,101171.38
2022-08-17T07:49:53.290Z,101167.78
2022-08-17T07:52:54.735Z,101173.44
2022-08-17T07:55:56.267Z,101172.28
2022-08-17T07:59:13.869Z,101184.25
2022-08-17T08:02:16.920Z,101188.09
2022-08-17T08:05:48.845Z,101187.72
2022-08-17T08:08:55.522Z,101187.53
2022-08-17T08:11:56.985Z,101182.84
2022-08-17T08:15:15.405Z,101192.91
2022-08-17T08:18:39.678Z,101191.47
2022-08-17T08:21:58.470Z,101193.03
2022-08-17T08:24:59.847Z,101189.75
2022-08-17T08:28:16.915Z,101186.88
2022-08-17T08:31:33.459Z,101186.94
2022-08-17T08:35:01.658Z,101201.25
2022-08-17T08:38:10.581Z,101203.06
2022-08-17T08:41:44.127Z,101206.03
2022-08-17T08:45:05.679Z,101214.06
2022-08-17T08:48:23.044Z,101215.03
2022-08-17T08:51:40.724Z,101212.16
2022-08-17T08:54:52.013Z,101212.38
2022-08-17T08:58:03.152Z,101216.66
2022-08-17T09:01:17.145Z,101217.59
2022-08-17T09:05:10.273Z,101216.34
2022-08-17T09:08:19.654Z,101222.56
2022-08-17T09:12:01.886Z,101224.78
2022-08-17T09:15:26.818Z,101222.38
2022-08-17T09:19:00.310Z,101226.28
2022-08-17T09:22:31.118Z,101219.69
2022-08-17T09:25:43.222Z,101221.38
2022-08-17T09:28:50.466Z,101217.75
2022-08-17T09:32:00.670Z,101223.13
2022-08-17T09:35:11.061Z,101221.19
2022-08-17T09:38:37.469Z,101225.97
2022-08-17T09:42:11.702Z,101227.03
2022-08-17T09:45:26.401Z,101229.41
2022-08-17T09:48:38.418Z,101235.25
2022-08-17T09:51:48.452Z,101242.34
2022-08-17T09:54:52.489Z,101240.16
2022-08-17T09:58:01.846Z,101245.31
2022-08-17T10:01:24.092Z,101250.13
2022-08-17T10:04:32.034Z,101237.69
2022-08-17T10:07:44.273Z,101234.00
2022-08-17T10:10:57.164Z,101232.06
2022-08-17T10:14:36.472Z,101223.44
2022-08-17T10:17:42.153Z,101229.03
2022-08-17T10:20:49.377Z,101227.00
2022-08-17T10:23:58.447Z,101234.09
2022-08-17T10:27:02.937Z,101238.16
2022-08-17T10:30:06.050Z,101236.66
2022-08-17T10:33:16.697Z,101240.56
2022-08-17T10:36:33.961Z,101241.72
2022-08-17T10:39:58.030Z,101244.53
2022-08-17T10:43:19.942Z,101243.00
2022-08-17T10:46:44.586Z,101235.91
2022-08-17T10:49:48.537Z,101247.31
2022-08-17T10:52:50.248Z,101250.50
2022-08-17T10:56:13.334Z,101270.56
2022-08-17T10:59:36.543Z,101259.28
2022-08-17T11:02:55.447Z,101262.84
2022-08-17T11:06:02.368Z,101256.97
2022-08-17T11:09:30.588Z,101266.75
2022-08-17T11:12:46.505Z,101262.84
2022-08-17T11:19:24.830Z,101280.91
2022-08-17T11:22:45.487Z,101285.41
2022-08-17T11:25:53.120Z,101291.19
2022-08-17T11:29:03.013Z,101289.75
2022-08-17T11:32:11.222Z,101310.56
2022-08-17T11:35:22.157Z,101310.97
2022-08-17T11:38:40.815Z,101310.25
2022-08-17T11:42:00.776Z,101311.66
2022-08-17T11:45:32.262Z,101315.50
2022-08-17T11:49:01.157Z,101304.94
2022-08-17T11:52:03.123Z,101304.44
2022-08-17T11:55:33.907Z,101300.13
2022-08-17T11:58:30.444Z,101290.69
2022-08-17T12:01:32.389Z,101290.25
2022-08-17T12:04:35.992Z,101281.59
2022-08-17T12:08:10.494Z,101283.41
2022-08-17T12:11:55.461Z,101285.66
2022-08-17T12:15:09.438Z,101279.22
2022-08-17T12:18:24.091Z,101279.41
2022-08-17T12:21:43.026Z,101283.41
2022-08-17T12:24:51.212Z,101273.94
2022-08-17T12:28:05.550Z,101270.50
2022-08-17T12:31:26.008Z,101263.16
2022-08-17T12:34:35.440Z,101262.47
2022-08-17T12:37:49.966Z,101271.00
2022-08-17T12:40:55.693Z,101255.22
2022-08-17T12:44:05.350Z,101255.50
2022-08-17T12:47:21.096Z,101256.06
2022-08-17T12:50:28.627Z,101245.38
2022-08-17T12:53:33.879Z,101244.38
2022-08-17T12:56:36.093Z,101236.16
2022-08-17T12:59:42.693Z,101241.59
2022-08-17T13:03:00.271Z,101235.22
2022-08-17T13:06:07.810Z,101236.09
2022-08-17T13:09:23.058Z,101236.09
2022-08-17T13:12:39.157Z,101248.31
2022-08-17T13:15:51.380Z,101250.25
2022-08-17T13:19:04.623Z,101245.75
2022-08-17T13:22:10.834Z,101252.13
2022-08-17T13:25:16.563Z,101254.59
2022-08-17T13:28:32.458Z,101247.31
2022-08-17T13:31:52.823Z,101249.22
2022-08-17T13:35:13.766Z,101254.97
2022-08-17T13:38:38.959Z,101254.78
2022-08-17T13:41:41.351Z,101253.69
2022-08-17T13:44:43.436Z,101247.09
2022-08-17T13:47:45.461Z,101245.88
2022-08-17T13:50:56.540Z,101243.16
2022-08-17T13:54:01.358Z,101241.16
2022-08-17T13:57:06.935Z,101246.72
2022-08-17T14:00:28.663Z,101237.91
2022-08-17T14:03:30.688Z,101239.94
2022-08-17T14:06:52.504Z,101239.09
2022-08-17T14:09:59.801Z,101237.69
2022-08-17T14:13:01.854Z,101231.88
2022-08-17T14:16:04.082Z,101235.06
2022-08-17T14:19:06.114Z,101234.50
2022-08-17T14:22:16.759Z,101228.50
2022-08-17T14:25:23.733Z,101224.78
2022-08-17T14:28:25.797Z,101221.00
2022-08-17T14:31:32.944Z,101212.78
2022-08-17T14:34:38.907Z,101206.84
2022-08-17T14:37:41.714Z,101217.50
2022-08-17T14:40:43.766Z,101211.25
2022-08-17T14:43:45.760Z,101217.28
2022-08-17T14:46:47.826Z,101224.94
2022-08-17T14:49:49.963Z,101230.13
2022-08-17T14:52:51.964Z,101224.09
2022-08-17T14:55:54.034Z,101221.91
2022-08-17T14:58:56.488Z,101220.84
2022-08-17T15:01:58.540Z,101219.00
2022-08-17T15:05:02.758Z,101221.03
2022-08-17T15:08:06.172Z,101221.50
2022-08-17T15:11:08.531Z,101226.75
2022-08-17T15:14:16.387Z,101225.31
2022-08-17T15:17:18.420Z,101218.34
2022-08-17T15:20:24.576Z,101216.31
2022-08-17T15:23:27.005Z,101219.09
2022-08-17T15:26:29.022Z,101213.38
2022-08-17T15:29:31.048Z,101212.78
2022-08-17T15:32:35.522Z,101216.50
2022-08-17T15:35:37.548Z,101229.84
2022-08-17T15:38:39.579Z,101219.47
2022-08-17T15:41:41.587Z,101226.75
2022-08-17T15:44:43.621Z,101222.38
2022-08-17T15:47:45.644Z,101224.94
2022-08-17T15:50:47.666Z,101224.47
2022-08-17T15:53:59.097Z,101223.50
2022-08-17T15:57:01.134Z,101220.94
2022-08-17T16:00:05.600Z,101226.56
2022-08-17T16:03:58.329Z,101222.72
2022-08-17T16:06:36.027Z,101230.91
2022-08-17T16:09:38.077Z,101231.00
2022-08-17T16:12:40.611Z,101227.22
2022-08-17T16:15:42.765Z,101221.00
2022-08-17T16:18:44.826Z,101228.44
2022-08-17T16:21:46.870Z,101223.84
2022-08-17T16:24:57.317Z,101230.59
2022-08-17T16:28:00.413Z,101219.22
2022-08-17T16:31:02.550Z,101226.97
2022-08-17T16:34:18.071Z,101238.53
2022-08-17T16:37:20.638Z,101230.00
2022-08-17T16:40:25.558Z,101240.31
2022-08-17T16:43:27.678Z,101240.50
2022-08-17T16:46:30.054Z,101235.31
2022-08-17T16:49:37.466Z,101238.97
2022-08-17T16:52:40.964Z,101244.66
2022-08-17T16:55:43.873Z,101246.56
2022-08-17T16:58:45.988Z,101249.34
2022-08-17T17:01:53.094Z,101240.38
2022-08-17T17:05:23.421Z,101249.56
2022-08-17T17:08:39.493Z,101256.03
2022-08-17T17:11:56.805Z,101244.78
2022-08-17T17:14:58.906Z,101254.53
2022-08-17T17:18:07.272Z,101245.38
2022-08-17T17:21:16.260Z,101250.06
2022-08-17T17:24:41.381Z,101259.88
2022-08-17T17:27:55.987Z,101250.22
2022-08-17T17:31:14.409Z,101249.56
2022-08-17T17:34:16.484Z,101249.56
2022-08-17T17:37:31.012Z,101259.38
2022-08-17T17:40:40.072Z,101258.84
2022-08-17T17:43:42.984Z,101274.06
2022-08-17T17:46:52.944Z,101270.44
2022-08-17T17:49:55.045Z,101265.41
2022-08-17T17:53:05.950Z,101267.34
2022-08-17T17:56:44.100Z,101269.38
2022-08-17T17:59:58.590Z,101274.31
2022-08-17T18:03:31.076Z,101264.72
2022-08-17T18:06:55.286Z,101261.25
2022-08-17T18:10:29.258Z,101270.75
2022-08-17T18:13:54.465Z,101283.34
2022-08-17T18:16:59.314Z,101296.00
2022-08-17T18:20:01.598Z,101295.38
2022-08-17T18:23:03.970Z,101303.34
2022-08-17T18:26:06.151Z,101298.00
2022-08-17T18:29:32.069Z,101297.81
2022-08-17T18:32:39.052Z,101292.47
2022-08-17T18:35:51.667Z,101290.91
2022-08-17T18:39:10.399Z,101285.47
2022-08-17T18:42:26.331Z,101290.44
2022-08-17T18:45:37.017Z,101294.16
2022-08-17T18:49:00.464Z,101287.97
2022-08-17T18:52:17.393Z,101291.59
2022-08-17T18:55:25.034Z,101293.47
2022-08-17T18:58:27.075Z,101297.94
2022-08-17T19:01:53.381Z,101306.06
2022-08-17T19:05:11.776Z,101309.50
2022-08-17T19:08:35.026Z,101315.69
2022-08-17T19:11:38.625Z,101315.09
2022-08-17T19:14:41.195Z,101316.19
2022-08-17T19:17:54.717Z,101327.94
2022-08-17T19:21:20.161Z,101331.69
2022-08-17T19:24:24.961Z,101337.03
2022-08-17T19:27:46.310Z,101319.13
2022-08-17T19:31:13.829Z,101340.81
2022-08-17T19:34:17.685Z,101347.50
2022-08-17T19:37:46.977Z,101351.19
2022-08-17T19:41:00.161Z,101355.75
2022-08-17T19:44:13.987Z,101368.34
2022-08-17T19:47:51.242Z,101369.97
2022-08-17T19:50:52.715Z,101360.78
2022-08-17T19:54:10.764Z,101355.88
2022-08-17T19:57:36.151Z,101352.13
2022-08-17T20:00:48.932Z,101347.72
2022-08-17T20:03:56.929Z,101338.91
2022-08-17T20:07:07.824Z,101325.91
2022-08-17T20:10:20.494Z,101323.53
2022-08-17T20:13:40.952Z,101322.44
2022-08-17T20:16:43.011Z,101340.41
2022-08-17T20:19:57.592Z,101335.31
2022-08-17T20:23:20.033Z,101347.06
2022-08-17T20:26:51.877Z,101343.47
2022-08-17T20:30:37.767Z,101351.63
2022-08-17T20:33:39.824Z,101348.19
2022-08-17T20:37:09.678Z,101355.09
2022-08-17T20:40:18.737Z,101351.63
2022-08-17T20:43:29.864Z,101354.28
2022-08-17T20:46:37.649Z,101356.91
2022-08-17T20:49:42.343Z,101357.75
2022-08-17T20:53:10.752Z,101353.34
2022-08-17T20:56:53.198Z,101350.63
2022-08-17T20:59:59.219Z,101352.50
2022-08-17T21:03:19.235Z,101352.50
2022-08-17T21:06:23.508Z,101356.09
2022-08-17T21:09:29.667Z,101358.13
2022-08-17T21:12:44.207Z,101355.41
2022-08-17T21:15:55.481Z,101351.81
2022-08-17T21:19:54.166Z,101349.91
2022-08-17T21:23:13.770Z,101348.94
2022-08-17T21:26:21.343Z,101348.91
2022-08-17T21:29:32.368Z,101354.13
2022-08-17T21:32:40.417Z,101345.28
2022-08-17T21:35:53.998Z,101343.41
2022-08-17T21:39:07.848Z,101348.81
2022-08-17T21:42:12.250Z,101351.31
2022-08-17T21:45:22.152Z,101351.31
2022-08-17T21:48:25.456Z,101363.75
2022-08-17T21:51:28.822Z,101361.66
2022-08-17T21:54:41.465Z,101368.50
2022-08-17T21:57:53.088Z,101373.69
2022-08-17T22:01:23.662Z,101374.38
2022-08-17T22:04:32.167Z,101371.75
2022-08-17T22:07:47.716Z,101372.66
2022-08-17T22:10:51.037Z,101368.16
2022-08-17T22:14:00.692Z,101371.94
2022-08-17T22:17:18.480Z,101373.97
2022-08-17T22:20:21.008Z,101383.03
2022-08-17T22:23:28.137Z,101392.16
2022-08-17T22:27:03.481Z,101385.25
2022-08-17T22:30:17.815Z,101392.63
2022-08-17T22:33:39.675Z,101394.94
2022-08-17T22:36:42.930Z,101403.94
2022-08-17T22:39:45.084Z,101407.53
2022-08-17T22:42:47.165Z,101411.13
2022-08-17T22:45:56.529Z,101414.59
2022-08-17T22:48:58.934Z,101423.69
2022-08-17T22:52:07.612Z,101432.78
2022-08-17T22:55:16.234Z,101427.56
2022-08-17T22:58:21.648Z,101424.16
2022-08-17T23:01:29.651Z,101407.19
2022-08-17T23:04:33.650Z,101391.25
2022-08-17T23:07:35.666Z,101386.03
2022-08-17T23:10:37.863Z,101392.50
2022-08-17T23:13:39.896Z,101397.81
2022-08-17T23:16:42.579Z,101392.63
2022-08-17T23:19:44.643Z,101408.88
2022-08-17T23:22:52.460Z,101403.59
2022-08-17T23:25:55.053Z,101411.19
2022-08-17T23:28:57.082Z,101413.19
2022-08-17T23:32:00.194Z,101407.41
2022-08-17T23:35:02.251Z,101413.91
2022-08-17T23:38:04.257Z,101411.91
2022-08-17T23:41:13.168Z,101402.66
2022-08-17T23:44:15.298Z,101394.66
2022-08-17T23:47:17.310Z,101398.25
2022-08-17T23:50:19.325Z,101411.44
2022-08-17T23:53:22.644Z,101413.13
2022-08-17T23:56:24.680Z,101410.25
2022-08-17T23:59:26.710Z,101406.78
